Livingstone, Zambia

6:42 PM CAT on February 13, 2016 (GMT +0200)
Livingstone | | Change Station
CLOSE
Current Station
Personal Weather Station
Location: Livingstone, SOUTHERN
Elevation: 3061 ft
Nearby Weather Stations

Elev 3061 ft 17.85 °S, 25.86 °E | Updated 8 seconds ago

Mostly Cloudy
Mostly Cloudy
82.9 °F
Feels Like 85 °F
N
0.0
Wind Variable Wind from North
Gusts 0.7 mph

Today
High -- | Low -- °F
--% Chance of Precip.
Yesterday
High -- | Low -- °F
Precip. -- in
Pressure 29.89 in
Visibility 6.2 miles
Clouds Few 3000 ft
Few 3500 ft
Mostly Cloudy 7000 ft
Heat Index 85 °F
Dew Point 66 °F
Humidity 57%
Rainfall 0.00 in
Snow Depth Not available.
6:09 AM 6:52 PM
Waxing Crescent, 32% visible
METAR FBKE 131600Z 08007KT 9999 FEW030 FEW035CB BKN070 29/18 Q1012
Pressure 29.89 in
Visibility 6.2 miles
Clouds Few 3000 ft
Few 3500 ft
Mostly Cloudy 7000 ft
Heat Index 85 °F
Dew Point 66 °F
Humidity 57%
Rainfall 0.00 in
Snow Depth Not available.
6:09 AM 6:52 PM
Waxing Crescent, 32% visible
METAR FBKE 131600Z 08007KT 9999 FEW030 FEW035CB BKN070 29/18 Q1012

10-Day Weather Forecast

No radar image for this location.
×

Almanac

Astronomy

Feb. 13, 2016 Rise Set
Actual Time
Civil Twilight
Nautical Twilight
Astronomical Twilight
Moon
Length of Visible Light
Length of Day
Tomorrow will be .
, % of the Moon is Illuminated

Today's Extremes

Country Highs Country Lows

Community

WunderPhotos

Upload Photos

1,892,604 photos uploaded!

WunderBlog® & News

Nearby

Air Quality

  Air Quality AQ Index Pollutant
Not available.

Snow Depth

Station Depth Elevation

Earthquake Activity

City Distance Mag. Time & Date
Minimum magnitude displayed is 2.5.

Coastal Water Temperatures

Place Temperature

Stations

Nearby Weather Stations

Station Location Temp. Windchill Dew Point Humidity Wind Precip. Elev Updated Type